sensor_id;sensor_type;location;lat;lon;timestamp;P1;durP1;ratioP1;P2;durP2;ratioP2
43877;SDS011;29815;48.184;11.268;2022-10-31T00:01:56;11.10;;;6.43;;
43877;SDS011;29815;48.184;11.268;2022-10-31T00:04:25;10.27;;;6.07;;
43877;SDS011;29815;48.184;11.268;2022-10-31T00:06:55;12.45;;;6.45;;
43877;SDS011;29815;48.184;11.268;2022-10-31T00:09:25;11.55;;;6.25;;
43877;SDS011;29815;48.184;11.268;2022-10-31T00:11:54;14.45;;;7.18;;
43877;SDS011;29815;48.184;11.268;2022-10-31T00:14:24;11.43;;;7.03;;
43877;SDS011;29815;48.184;11.268;2022-10-31T00:16:54;15.70;;;7.25;;
43877;SDS011;29815;48.184;11.268;2022-10-31T00:19:25;15.63;;;8.07;;
43877;SDS011;29815;48.184;11.268;2022-10-31T00:21:55;13.32;;;8.25;;
43877;SDS011;29815;48.184;11.268;2022-10-31T00:24:24;12.93;;;8.85;;
43877;SDS011;29815;48.184;11.268;2022-10-31T00:26:54;19.88;;;10.98;;
43877;SDS011;29815;48.184;11.268;2022-10-31T00:29:23;16.20;;;8.52;;
43877;SDS011;29815;48.184;11.268;2022-10-31T00:31:53;17.55;;;9.73;;
43877;SDS011;29815;48.184;11.268;2022-10-31T00:34:24;21.33;;;12.02;;
43877;SDS011;29815;48.184;11.268;2022-10-31T00:36:53;22.10;;;10.93;;
43877;SDS011;29815;48.184;11.268;2022-10-31T00:39:23;16.83;;;11.02;;
43877;SDS011;29815;48.184;11.268;2022-10-31T00:41:52;20.00;;;10.60;;
43877;SDS011;29815;48.184;11.268;2022-10-31T00:44:24;18.65;;;10.57;;
43877;SDS011;29815;48.184;11.268;2022-10-31T00:46:54;21.45;;;9.98;;
43877;SDS011;29815;48.184;11.268;2022-10-31T00:49:25;13.35;;;9.32;;
43877;SDS011;29815;48.184;11.268;2022-10-31T00:51:55;15.90;;;9.27;;
43877;SDS011;29815;48.184;11.268;2022-10-31T00:54:25;14.88;;;8.35;;
43877;SDS011;29815;48.184;11.268;2022-10-31T00:56:58;15.20;;;8.40;;
43877;SDS011;29815;48.184;11.268;2022-10-31T00:59:27;12.98;;;8.27;;
43877;SDS011;29815;48.184;11.268;2022-10-31T01:01:57;15.57;;;7.50;;
43877;SDS011;29815;48.184;11.268;2022-10-31T01:04:28;13.98;;;9.07;;
43877;SDS011;29815;48.184;11.268;2022-10-31T01:06:58;13.63;;;9.18;;
43877;SDS011;29815;48.184;11.268;2022-10-31T01:09:28;12.23;;;9.15;;
43877;SDS011;29815;48.184;11.268;2022-10-31T01:11:59;11.60;;;8.65;;
43877;SDS011;29815;48.184;11.268;2022-10-31T01:14:28;15.30;;;8.73;;
43877;SDS011;29815;48.184;11.268;2022-10-31T01:16:58;16.83;;;8.48;;
43877;SDS011;29815;48.184;11.268;2022-10-31T01:19:29;11.80;;;7.45;;
43877;SDS011;29815;48.184;11.268;2022-10-31T01:21:58;14.32;;;7.53;;
43877;SDS011;29815;48.184;11.268;2022-10-31T01:24:29;19.45;;;7.65;;
43877;SDS011;29815;48.184;11.268;2022-10-31T01:27:01;15.02;;;8.13;;
43877;SDS011;29815;48.184;11.268;2022-10-31T01:29:34;12.73;;;8.05;;
43877;SDS011;29815;48.184;11.268;2022-10-31T01:32:05;17.73;;;8.38;;
43877;SDS011;29815;48.184;11.268;2022-10-31T01:34:36;13.70;;;8.55;;
43877;SDS011;29815;48.184;11.268;2022-10-31T01:37:05;14.02;;;7.53;;
43877;SDS011;29815;48.184;11.268;2022-10-31T01:39:36;13.38;;;7.25;;
43877;SDS011;29815;48.184;11.268;2022-10-31T01:42:22;11.63;;;8.38;;
43877;SDS011;29815;48.184;11.268;2022-10-31T01:49:28;16.70;;;7.90;;
43877;SDS011;29815;48.184;11.268;2022-10-31T01:52:08;14.13;;;7.53;;
43877;SDS011;29815;48.184;11.268;2022-10-31T01:54:45;12.27;;;8.27;;
43877;SDS011;29815;48.184;11.268;2022-10-31T01:57:22;13.27;;;8.77;;
43877;SDS011;29815;48.184;11.268;2022-10-31T01:59:53;13.63;;;8.68;;
43877;SDS011;29815;48.184;11.268;2022-10-31T02:02:39;10.85;;;7.35;;
43877;SDS011;29815;48.184;11.268;2022-10-31T02:05:12;14.07;;;8.38;;
43877;SDS011;29815;48.184;11.268;2022-10-31T02:07:48;16.05;;;8.38;;
43877;SDS011;29815;48.184;11.268;2022-10-31T02:10:29;12.43;;;8.43;;
43877;SDS011;29815;48.184;11.268;2022-10-31T02:13:02;12.57;;;7.25;;
43877;SDS011;29815;48.184;11.268;2022-10-31T02:15:40;17.75;;;9.63;;
43877;SDS011;29815;48.184;11.268;2022-10-31T02:18:14;13.98;;;7.97;;
43877;SDS011;29815;48.184;11.268;2022-10-31T02:20:48;9.85;;;5.97;;
43877;SDS011;29815;48.184;11.268;2022-10-31T02:27:16;10.05;;;6.40;;
43877;SDS011;29815;48.184;11.268;2022-10-31T02:30:20;13.98;;;7.70;;
43877;SDS011;29815;48.184;11.268;2022-10-31T02:33:02;9.35;;;7.32;;
43877;SDS011;29815;48.184;11.268;2022-10-31T02:35:48;11.40;;;6.80;;
43877;SDS011;29815;48.184;11.268;2022-10-31T02:38:34;16.63;;;8.23;;
43877;SDS011;29815;48.184;11.268;2022-10-31T02:41:26;12.55;;;6.95;;
43877;SDS011;29815;48.184;11.268;2022-10-31T02:44:08;10.43;;;6.78;;
43877;SDS011;29815;48.184;11.268;2022-10-31T02:46:50;11.18;;;7.10;;
43877;SDS011;29815;48.184;11.268;2022-10-31T02:49:27;10.75;;;6.88;;
43877;SDS011;29815;48.184;11.268;2022-10-31T02:52:13;11.25;;;6.97;;
43877;SDS011;29815;48.184;11.268;2022-10-31T02:54:47;12.32;;;7.15;;
43877;SDS011;29815;48.184;11.268;2022-10-31T02:57:18;14.02;;;6.50;;
43877;SDS011;29815;48.184;11.268;2022-10-31T02:59:54;12.82;;;7.93;;
43877;SDS011;29815;48.184;11.268;2022-10-31T03:02:33;10.40;;;7.28;;
43877;SDS011;29815;48.184;11.268;2022-10-31T03:08:27;12.68;;;6.00;;
43877;SDS011;29815;48.184;11.268;2022-10-31T03:11:05;11.00;;;6.38;;
43877;SDS011;29815;48.184;11.268;2022-10-31T03:13:39;11.02;;;6.35;;
43877;SDS011;29815;48.184;11.268;2022-10-31T03:16:16;15.02;;;7.10;;
43877;SDS011;29815;48.184;11.268;2022-10-31T03:18:55;13.18;;;6.55;;
43877;SDS011;29815;48.184;11.268;2022-10-31T03:21:32;8.07;;;5.65;;
43877;SDS011;29815;48.184;11.268;2022-10-31T03:24:08;11.32;;;6.03;;
43877;SDS011;29815;48.184;11.268;2022-10-31T03:26:42;10.85;;;7.18;;
43877;SDS011;29815;48.184;11.268;2022-10-31T03:29:16;13.68;;;5.53;;
43877;SDS011;29815;48.184;11.268;2022-10-31T03:31:54;12.45;;;6.15;;
43877;SDS011;29815;48.184;11.268;2022-10-31T03:34:29;10.80;;;6.20;;
43877;SDS011;29815;48.184;11.268;2022-10-31T03:37:02;10.40;;;6.68;;
43877;SDS011;29815;48.184;11.268;2022-10-31T03:39:36;8.48;;;5.78;;
43877;SDS011;29815;48.184;11.268;2022-10-31T03:42:10;9.88;;;6.30;;
43877;SDS011;29815;48.184;11.268;2022-10-31T03:44:45;10.23;;;5.22;;
43877;SDS011;29815;48.184;11.268;2022-10-31T03:47:35;9.23;;;5.38;;
43877;SDS011;29815;48.184;11.268;2022-10-31T03:50:07;12.00;;;5.85;;
43877;SDS011;29815;48.184;11.268;2022-10-31T03:52:41;13.50;;;6.35;;
43877;SDS011;29815;48.184;11.268;2022-10-31T03:55:16;10.63;;;5.68;;
43877;SDS011;29815;48.184;11.268;2022-10-31T03:57:51;13.02;;;5.90;;
43877;SDS011;29815;48.184;11.268;2022-10-31T04:00:28;7.13;;;6.03;;
43877;SDS011;29815;48.184;11.268;2022-10-31T04:03:03;10.48;;;5.63;;
43877;SDS011;29815;48.184;11.268;2022-10-31T04:05:40;10.50;;;6.45;;
43877;SDS011;29815;48.184;11.268;2022-10-31T04:08:17;11.80;;;6.57;;
43877;SDS011;29815;48.184;11.268;2022-10-31T04:10:54;14.00;;;6.13;;
43877;SDS011;29815;48.184;11.268;2022-10-31T04:13:26;8.57;;;5.38;;
43877;SDS011;29815;48.184;11.268;2022-10-31T04:16:10;10.90;;;5.10;;
43877;SDS011;29815;48.184;11.268;2022-10-31T04:18:44;12.15;;;5.70;;
43877;SDS011;29815;48.184;11.268;2022-10-31T04:21:13;9.68;;;5.75;;
43877;SDS011;29815;48.184;11.268;2022-10-31T04:23:45;11.45;;;5.68;;
43877;SDS011;29815;48.184;11.268;2022-10-31T04:26:19;12.75;;;5.72;;
43877;SDS011;29815;48.184;11.268;2022-10-31T04:28:48;15.52;;;5.47;;
43877;SDS011;29815;48.184;11.268;2022-10-31T04:31:18;11.20;;;6.85;;
43877;SDS011;29815;48.184;11.268;2022-10-31T04:33:49;11.65;;;6.93;;
43877;SDS011;29815;48.184;11.268;2022-10-31T04:36:19;12.07;;;6.20;;
43877;SDS011;29815;48.184;11.268;2022-10-31T04:38:49;12.48;;;5.28;;
43877;SDS011;29815;48.184;11.268;2022-10-31T04:41:32;10.75;;;6.10;;
43877;SDS011;29815;48.184;11.268;2022-10-31T04:44:04;12.32;;;6.13;;
43877;SDS011;29815;48.184;11.268;2022-10-31T04:46:34;9.95;;;5.70;;
43877;SDS011;29815;48.184;11.268;2022-10-31T04:49:03;7.90;;;5.65;;
43877;SDS011;29815;48.184;11.268;2022-10-31T04:51:35;11.25;;;5.18;;
43877;SDS011;29815;48.184;11.268;2022-10-31T04:54:06;12.32;;;5.65;;
43877;SDS011;29815;48.184;11.268;2022-10-31T04:56:54;11.82;;;6.82;;
43877;SDS011;29815;48.184;11.268;2022-10-31T04:59:23;9.48;;;5.82;;
43877;SDS011;29815;48.184;11.268;2022-10-31T05:01:54;8.57;;;4.60;;
43877;SDS011;29815;48.184;11.268;2022-10-31T05:04:40;13.15;;;5.97;;
43877;SDS011;29815;48.184;11.268;2022-10-31T05:07:09;12.25;;;6.00;;
43877;SDS011;29815;48.184;11.268;2022-10-31T05:09:40;9.93;;;5.00;;
43877;SDS011;29815;48.184;11.268;2022-10-31T05:12:12;9.65;;;5.40;;
43877;SDS011;29815;48.184;11.268;2022-10-31T05:15:08;7.80;;;5.40;;
43877;SDS011;29815;48.184;11.268;2022-10-31T05:18:16;12.35;;;5.80;;
43877;SDS011;29815;48.184;11.268;2022-10-31T05:21:06;8.35;;;5.20;;
43877;SDS011;29815;48.184;11.268;2022-10-31T05:23:37;10.25;;;5.95;;
43877;SDS011;29815;48.184;11.268;2022-10-31T05:26:16;7.80;;;4.70;;
43877;SDS011;29815;48.184;11.268;2022-10-31T05:28:47;10.02;;;5.85;;
43877;SDS011;29815;48.184;11.268;2022-10-31T05:31:17;8.70;;;5.43;;
43877;SDS011;29815;48.184;11.268;2022-10-31T05:33:49;11.70;;;5.63;;
43877;SDS011;29815;48.184;11.268;2022-10-31T05:36:40;6.95;;;5.00;;
43877;SDS011;29815;48.184;11.268;2022-10-31T05:39:15;11.82;;;5.90;;
43877;SDS011;29815;48.184;11.268;2022-10-31T05:41:52;8.63;;;5.28;;
43877;SDS011;29815;48.184;11.268;2022-10-31T05:44:25;9.48;;;6.43;;
43877;SDS011;29815;48.184;11.268;2022-10-31T05:47:14;13.45;;;7.22;;
43877;SDS011;29815;48.184;11.268;2022-10-31T05:50:02;12.55;;;6.63;;
43877;SDS011;29815;48.184;11.268;2022-10-31T05:52:47;16.13;;;7.57;;
43877;SDS011;29815;48.184;11.268;2022-10-31T05:55:32;12.98;;;6.80;;
43877;SDS011;29815;48.184;11.268;2022-10-31T05:58:20;7.97;;;5.65;;
43877;SDS011;29815;48.184;11.268;2022-10-31T06:01:46;9.43;;;5.95;;
43877;SDS011;29815;48.184;11.268;2022-10-31T06:07:19;8.68;;;5.57;;
43877;SDS011;29815;48.184;11.268;2022-10-31T06:09:51;10.38;;;5.70;;
43877;SDS011;29815;48.184;11.268;2022-10-31T06:12:22;8.43;;;6.15;;
43877;SDS011;29815;48.184;11.268;2022-10-31T06:15:16;9.05;;;5.32;;
43877;SDS011;29815;48.184;11.268;2022-10-31T06:18:00;9.77;;;6.45;;
43877;SDS011;29815;48.184;11.268;2022-10-31T06:21:14;13.80;;;6.00;;
43877;SDS011;29815;48.184;11.268;2022-10-31T06:23:47;10.18;;;6.68;;
43877;SDS011;29815;48.184;11.268;2022-10-31T06:26:40;10.15;;;5.63;;
43877;SDS011;29815;48.184;11.268;2022-10-31T06:29:11;9.30;;;5.47;;
43877;SDS011;29815;48.184;11.268;2022-10-31T06:32:04;9.98;;;5.35;;
43877;SDS011;29815;48.184;11.268;2022-10-31T06:34:39;6.15;;;4.93;;
43877;SDS011;29815;48.184;11.268;2022-10-31T06:37:09;10.48;;;4.82;;
43877;SDS011;29815;48.184;11.268;2022-10-31T06:39:43;9.50;;;5.35;;
43877;SDS011;29815;48.184;11.268;2022-10-31T06:42:15;15.10;;;6.25;;
43877;SDS011;29815;48.184;11.268;2022-10-31T06:44:46;9.40;;;5.65;;
43877;SDS011;29815;48.184;11.268;2022-10-31T06:47:26;9.88;;;5.85;;
43877;SDS011;29815;48.184;11.268;2022-10-31T06:50:06;16.48;;;7.40;;
43877;SDS011;29815;48.184;11.268;2022-10-31T06:52:37;16.92;;;6.90;;
43877;SDS011;29815;48.184;11.268;2022-10-31T06:55:06;11.63;;;6.82;;
43877;SDS011;29815;48.184;11.268;2022-10-31T06:57:36;11.73;;;6.68;;
43877;SDS011;29815;48.184;11.268;2022-10-31T07:00:08;15.73;;;6.90;;
43877;SDS011;29815;48.184;11.268;2022-10-31T07:02:59;11.15;;;6.18;;
43877;SDS011;29815;48.184;11.268;2022-10-31T07:05:36;8.85;;;5.68;;
43877;SDS011;29815;48.184;11.268;2022-10-31T07:08:06;14.75;;;6.28;;
43877;SDS011;29815;48.184;11.268;2022-10-31T07:13:11;14.57;;;7.05;;
43877;SDS011;29815;48.184;11.268;2022-10-31T07:15:49;10.45;;;6.35;;
43877;SDS011;29815;48.184;11.268;2022-10-31T07:18:21;12.75;;;4.90;;
43877;SDS011;29815;48.184;11.268;2022-10-31T07:20:52;15.57;;;8.07;;
43877;SDS011;29815;48.184;11.268;2022-10-31T07:23:22;12.35;;;6.07;;
43877;SDS011;29815;48.184;11.268;2022-10-31T07:26:11;8.55;;;6.07;;
43877;SDS011;29815;48.184;11.268;2022-10-31T07:28:45;10.10;;;5.03;;
43877;SDS011;29815;48.184;11.268;2022-10-31T07:31:17;8.30;;;4.97;;
43877;SDS011;29815;48.184;11.268;2022-10-31T07:33:48;10.25;;;5.47;;
43877;SDS011;29815;48.184;11.268;2022-10-31T07:36:41;8.57;;;5.07;;
43877;SDS011;29815;48.184;11.268;2022-10-31T07:39:12;10.93;;;6.35;;
43877;SDS011;29815;48.184;11.268;2022-10-31T07:41:42;13.30;;;6.68;;
43877;SDS011;29815;48.184;11.268;2022-10-31T07:44:11;11.57;;;7.97;;
43877;SDS011;29815;48.184;11.268;2022-10-31T07:47:13;9.95;;;7.15;;
43877;SDS011;29815;48.184;11.268;2022-10-31T07:50:02;12.57;;;7.35;;
43877;SDS011;29815;48.184;11.268;2022-10-31T07:53:11;12.52;;;8.05;;
43877;SDS011;29815;48.184;11.268;2022-10-31T07:55:42;10.43;;;7.25;;
43877;SDS011;29815;48.184;11.268;2022-10-31T07:58:14;11.52;;;7.45;;
43877;SDS011;29815;48.184;11.268;2022-10-31T08:00:46;17.70;;;10.73;;
43877;SDS011;29815;48.184;11.268;2022-10-31T08:03:28;20.17;;;14.50;;
43877;SDS011;29815;48.184;11.268;2022-10-31T08:06:11;17.13;;;12.32;;
43877;SDS011;29815;48.184;11.268;2022-10-31T08:08:59;17.90;;;12.85;;
43877;SDS011;29815;48.184;11.268;2022-10-31T08:11:28;19.08;;;10.98;;
43877;SDS011;29815;48.184;11.268;2022-10-31T08:14:00;14.38;;;10.75;;
43877;SDS011;29815;48.184;11.268;2022-10-31T08:16:30;16.05;;;9.35;;
43877;SDS011;29815;48.184;11.268;2022-10-31T08:19:02;14.77;;;9.75;;
43877;SDS011;29815;48.184;11.268;2022-10-31T08:21:38;13.30;;;8.95;;
43877;SDS011;29815;48.184;11.268;2022-10-31T08:24:09;18.70;;;9.60;;
43877;SDS011;29815;48.184;11.268;2022-10-31T08:26:40;14.18;;;9.95;;
43877;SDS011;29815;48.184;11.268;2022-10-31T08:29:10;15.23;;;8.90;;
43877;SDS011;29815;48.184;11.268;2022-10-31T08:31:41;16.13;;;9.57;;
43877;SDS011;29815;48.184;11.268;2022-10-31T08:34:29;13.45;;;9.73;;
43877;SDS011;29815;48.184;11.268;2022-10-31T08:37:39;12.73;;;9.27;;
43877;SDS011;29815;48.184;11.268;2022-10-31T08:40:09;19.95;;;10.10;;
43877;SDS011;29815;48.184;11.268;2022-10-31T08:42:40;15.90;;;9.93;;
43877;SDS011;29815;48.184;11.268;2022-10-31T08:45:12;15.35;;;10.88;;
43877;SDS011;29815;48.184;11.268;2022-10-31T08:47:41;13.98;;;10.75;;
43877;SDS011;29815;48.184;11.268;2022-10-31T08:50:12;20.95;;;12.57;;
43877;SDS011;29815;48.184;11.268;2022-10-31T08:52:48;20.67;;;13.32;;
43877;SDS011;29815;48.184;11.268;2022-10-31T08:55:33;16.92;;;13.70;;
43877;SDS011;29815;48.184;11.268;2022-10-31T08:58:09;21.42;;;14.95;;
43877;SDS011;29815;48.184;11.268;2022-10-31T09:00:47;23.83;;;15.68;;
43877;SDS011;29815;48.184;11.268;2022-10-31T09:03:22;25.38;;;15.48;;
43877;SDS011;29815;48.184;11.268;2022-10-31T09:05:54;22.85;;;13.70;;
43877;SDS011;29815;48.184;11.268;2022-10-31T09:08:30;19.67;;;14.57;;
43877;SDS011;29815;48.184;11.268;2022-10-31T09:11:02;23.25;;;14.77;;
43877;SDS011;29815;48.184;11.268;2022-10-31T09:13:52;20.13;;;13.32;;
43877;SDS011;29815;48.184;11.268;2022-10-31T09:16:40;19.38;;;12.60;;
43877;SDS011;29815;48.184;11.268;2022-10-31T09:19:16;17.73;;;13.68;;
43877;SDS011;29815;48.184;11.268;2022-10-31T09:21:47;16.30;;;12.23;;
43877;SDS011;29815;48.184;11.268;2022-10-31T09:24:21;21.65;;;13.77;;
43877;SDS011;29815;48.184;11.268;2022-10-31T09:26:52;20.83;;;13.60;;
43877;SDS011;29815;48.184;11.268;2022-10-31T09:29:28;20.15;;;14.20;;
43877;SDS011;29815;48.184;11.268;2022-10-31T09:32:00;20.70;;;14.40;;
43877;SDS011;29815;48.184;11.268;2022-10-31T09:34:30;16.55;;;13.48;;
43877;SDS011;29815;48.184;11.268;2022-10-31T09:37:05;19.42;;;12.93;;
43877;SDS011;29815;48.184;11.268;2022-10-31T09:39:36;21.15;;;13.63;;
43877;SDS011;29815;48.184;11.268;2022-10-31T09:42:25;19.25;;;13.02;;
43877;SDS011;29815;48.184;11.268;2022-10-31T09:45:22;17.90;;;12.40;;
43877;SDS011;29815;48.184;11.268;2022-10-31T09:48:08;22.20;;;12.55;;
43877;SDS011;29815;48.184;11.268;2022-10-31T09:51:08;15.20;;;10.75;;
43877;SDS011;29815;48.184;11.268;2022-10-31T09:54:04;17.40;;;11.57;;
43877;SDS011;29815;48.184;11.268;2022-10-31T09:56:41;21.77;;;12.95;;
43877;SDS011;29815;48.184;11.268;2022-10-31T09:59:16;18.15;;;11.00;;
43877;SDS011;29815;48.184;11.268;2022-10-31T10:01:54;16.52;;;10.73;;
43877;SDS011;29815;48.184;11.268;2022-10-31T10:04:32;15.65;;;11.25;;
43877;SDS011;29815;48.184;11.268;2022-10-31T10:07:22;20.92;;;11.02;;
43877;SDS011;29815;48.184;11.268;2022-10-31T10:10:24;14.00;;;9.63;;
43877;SDS011;29815;48.184;11.268;2022-10-31T10:13:38;17.13;;;10.57;;
43877;SDS011;29815;48.184;11.268;2022-10-31T10:16:30;22.58;;;9.93;;
43877;SDS011;29815;48.184;11.268;2022-10-31T10:19:33;15.35;;;8.43;;
43877;SDS011;29815;48.184;11.268;2022-10-31T10:22:37;13.70;;;9.27;;
43877;SDS011;29815;48.184;11.268;2022-10-31T10:25:15;16.90;;;9.48;;
43877;SDS011;29815;48.184;11.268;2022-10-31T10:27:54;14.75;;;8.52;;
43877;SDS011;29815;48.184;11.268;2022-10-31T10:30:39;18.30;;;8.65;;
43877;SDS011;29815;48.184;11.268;2022-10-31T10:33:15;22.15;;;8.57;;
43877;SDS011;29815;48.184;11.268;2022-10-31T10:35:50;15.43;;;7.07;;
43877;SDS011;29815;48.184;11.268;2022-10-31T10:38:27;13.73;;;7.55;;
43877;SDS011;29815;48.184;11.268;2022-10-31T10:41:04;15.38;;;7.15;;
43877;SDS011;29815;48.184;11.268;2022-10-31T10:43:41;12.50;;;7.07;;
43877;SDS011;29815;48.184;11.268;2022-10-31T10:46:19;12.45;;;7.50;;
43877;SDS011;29815;48.184;11.268;2022-10-31T10:49:15;12.67;;;6.63;;
43877;SDS011;29815;48.184;11.268;2022-10-31T10:51:49;13.63;;;7.05;;
43877;SDS011;29815;48.184;11.268;2022-10-31T10:54:51;16.00;;;6.50;;
43877;SDS011;29815;48.184;11.268;2022-10-31T10:57:38;10.70;;;6.20;;
43877;SDS011;29815;48.184;11.268;2022-10-31T11:00:24;9.93;;;6.38;;
43877;SDS011;29815;48.184;11.268;2022-10-31T11:02:59;13.80;;;5.20;;
43877;SDS011;29815;48.184;11.268;2022-10-31T11:05:33;16.10;;;6.37;;
43877;SDS011;29815;48.184;11.268;2022-10-31T11:08:07;10.90;;;5.95;;
43877;SDS011;29815;48.184;11.268;2022-10-31T11:10:37;14.30;;;7.00;;
43877;SDS011;29815;48.184;11.268;2022-10-31T11:13:17;14.35;;;6.93;;
43877;SDS011;29815;48.184;11.268;2022-10-31T11:15:56;17.05;;;7.05;;
43877;SDS011;29815;48.184;11.268;2022-10-31T11:18:32;11.60;;;6.28;;
43877;SDS011;29815;48.184;11.268;2022-10-31T11:21:05;12.18;;;6.93;;
43877;SDS011;29815;48.184;11.268;2022-10-31T11:23:49;11.43;;;7.10;;
43877;SDS011;29815;48.184;11.268;2022-10-31T11:26:30;12.10;;;5.57;;
43877;SDS011;29815;48.184;11.268;2022-10-31T11:32:33;15.85;;;6.78;;
43877;SDS011;29815;48.184;11.268;2022-10-31T11:35:09;11.35;;;5.82;;
43877;SDS011;29815;48.184;11.268;2022-10-31T11:37:44;14.02;;;6.47;;
43877;SDS011;29815;48.184;11.268;2022-10-31T11:40:16;9.35;;;5.70;;
43877;SDS011;29815;48.184;11.268;2022-10-31T11:42:50;10.50;;;5.82;;
43877;SDS011;29815;48.184;11.268;2022-10-31T11:45:27;11.63;;;5.38;;
43877;SDS011;29815;48.184;11.268;2022-10-31T11:48:01;15.75;;;6.13;;
43877;SDS011;29815;48.184;11.268;2022-10-31T11:50:49;9.82;;;4.38;;
43877;SDS011;29815;48.184;11.268;2022-10-31T11:53:24;12.40;;;5.13;;
43877;SDS011;29815;48.184;11.268;2022-10-31T11:56:01;10.57;;;4.55;;
43877;SDS011;29815;48.184;11.268;2022-10-31T11:58:38;10.95;;;3.95;;
43877;SDS011;29815;48.184;11.268;2022-10-31T12:01:20;8.95;;;3.97;;
43877;SDS011;29815;48.184;11.268;2022-10-31T12:03:57;13.77;;;4.25;;
43877;SDS011;29815;48.184;11.268;2022-10-31T12:06:36;10.73;;;4.30;;
43877;SDS011;29815;48.184;11.268;2022-10-31T12:09:11;11.85;;;4.70;;
43877;SDS011;29815;48.184;11.268;2022-10-31T12:11:55;14.65;;;4.55;;
43877;SDS011;29815;48.184;11.268;2022-10-31T12:14:50;10.07;;;3.97;;
43877;SDS011;29815;48.184;11.268;2022-10-31T12:17:36;9.93;;;4.38;;
43877;SDS011;29815;48.184;11.268;2022-10-31T12:20:22;11.90;;;3.78;;
43877;SDS011;29815;48.184;11.268;2022-10-31T12:23:09;10.73;;;3.85;;
43877;SDS011;29815;48.184;11.268;2022-10-31T12:25:50;7.57;;;3.40;;
43877;SDS011;29815;48.184;11.268;2022-10-31T12:28:38;10.52;;;4.57;;
43877;SDS011;29815;48.184;11.268;2022-10-31T12:31:42;12.70;;;6.45;;
43877;SDS011;29815;48.184;11.268;2022-10-31T12:37:52;11.63;;;6.97;;
43877;SDS011;29815;48.184;11.268;2022-10-31T12:40:53;8.30;;;5.32;;
43877;SDS011;29815;48.184;11.268;2022-10-31T12:43:46;12.40;;;5.47;;
43877;SDS011;29815;48.184;11.268;2022-10-31T12:46:29;13.80;;;5.47;;
43877;SDS011;29815;48.184;11.268;2022-10-31T12:49:27;11.57;;;5.10;;
43877;SDS011;29815;48.184;11.268;2022-10-31T12:52:19;12.85;;;4.40;;
43877;SDS011;29815;48.184;11.268;2022-10-31T12:55:24;12.32;;;5.18;;
43877;SDS011;29815;48.184;11.268;2022-10-31T12:58:17;17.33;;;6.93;;
43877;SDS011;29815;48.184;11.268;2022-10-31T13:00:57;13.20;;;6.60;;
43877;SDS011;29815;48.184;11.268;2022-10-31T13:03:39;11.88;;;6.05;;
43877;SDS011;29815;48.184;11.268;2022-10-31T13:06:19;10.15;;;5.25;;
43877;SDS011;29815;48.184;11.268;2022-10-31T13:08:56;15.50;;;6.40;;
43877;SDS011;29815;48.184;11.268;2022-10-31T13:11:32;11.77;;;5.65;;
43877;SDS011;29815;48.184;11.268;2022-10-31T13:14:09;14.00;;;5.45;;
43877;SDS011;29815;48.184;11.268;2022-10-31T13:16:50;13.85;;;5.63;;
43877;SDS011;29815;48.184;11.268;2022-10-31T13:19:23;10.48;;;5.28;;
43877;SDS011;29815;48.184;11.268;2022-10-31T13:22:06;11.32;;;5.90;;
43877;SDS011;29815;48.184;11.268;2022-10-31T13:24:44;13.85;;;5.70;;
43877;SDS011;29815;48.184;11.268;2022-10-31T13:27:25;11.50;;;5.25;;
43877;SDS011;29815;48.184;11.268;2022-10-31T13:30:01;7.32;;;4.57;;
43877;SDS011;29815;48.184;11.268;2022-10-31T13:32:41;12.80;;;4.78;;
43877;SDS011;29815;48.184;11.268;2022-10-31T13:35:19;9.27;;;5.22;;
43877;SDS011;29815;48.184;11.268;2022-10-31T13:38:08;11.00;;;4.93;;
43877;SDS011;29815;48.184;11.268;2022-10-31T13:40:50;13.77;;;5.00;;
43877;SDS011;29815;48.184;11.268;2022-10-31T13:43:28;10.02;;;4.22;;
43877;SDS011;29815;48.184;11.268;2022-10-31T13:46:25;8.57;;;4.05;;
43877;SDS011;29815;48.184;11.268;2022-10-31T13:49:21;7.88;;;4.60;;
43877;SDS011;29815;48.184;11.268;2022-10-31T13:52:10;7.53;;;4.68;;
43877;SDS011;29815;48.184;11.268;2022-10-31T13:54:45;11.27;;;5.00;;
43877;SDS011;29815;48.184;11.268;2022-10-31T13:57:26;11.52;;;5.35;;
43877;SDS011;29815;48.184;11.268;2022-10-31T14:00:06;12.50;;;5.30;;
43877;SDS011;29815;48.184;11.268;2022-10-31T14:02:53;11.68;;;5.53;;
43877;SDS011;29815;48.184;11.268;2022-10-31T14:05:26;11.13;;;5.63;;
43877;SDS011;29815;48.184;11.268;2022-10-31T14:08:01;15.70;;;6.55;;
43877;SDS011;29815;48.184;11.268;2022-10-31T14:10:35;18.25;;;6.15;;
43877;SDS011;29815;48.184;11.268;2022-10-31T14:13:07;17.58;;;5.93;;
43877;SDS011;29815;48.184;11.268;2022-10-31T14:15:52;10.13;;;5.57;;
43877;SDS011;29815;48.184;11.268;2022-10-31T14:21:00;8.63;;;5.13;;
43877;SDS011;29815;48.184;11.268;2022-10-31T14:23:34;15.73;;;5.88;;
43877;SDS011;29815;48.184;11.268;2022-10-31T14:26:18;10.05;;;5.50;;
43877;SDS011;29815;48.184;11.268;2022-10-31T14:29:02;13.00;;;5.60;;
43877;SDS011;29815;48.184;11.268;2022-10-31T14:32:06;16.33;;;5.38;;
43877;SDS011;29815;48.184;11.268;2022-10-31T14:34:53;9.15;;;4.93;;
43877;SDS011;29815;48.184;11.268;2022-10-31T14:37:29;16.13;;;6.45;;
43877;SDS011;29815;48.184;11.268;2022-10-31T14:40:26;12.32;;;5.00;;
43877;SDS011;29815;48.184;11.268;2022-10-31T14:43:13;10.20;;;5.60;;
43877;SDS011;29815;48.184;11.268;2022-10-31T14:46:35;11.40;;;4.82;;
43877;SDS011;29815;48.184;11.268;2022-10-31T14:49:25;14.82;;;5.63;;
43877;SDS011;29815;48.184;11.268;2022-10-31T14:52:29;12.65;;;5.18;;
43877;SDS011;29815;48.184;11.268;2022-10-31T14:54:59;10.65;;;5.68;;
43877;SDS011;29815;48.184;11.268;2022-10-31T14:57:34;13.10;;;5.28;;
43877;SDS011;29815;48.184;11.268;2022-10-31T15:00:06;9.95;;;5.57;;
43877;SDS011;29815;48.184;11.268;2022-10-31T15:02:49;11.68;;;5.40;;
43877;SDS011;29815;48.184;11.268;2022-10-31T15:05:46;14.02;;;5.10;;
43877;SDS011;29815;48.184;11.268;2022-10-31T15:08:27;9.68;;;4.68;;
43877;SDS011;29815;48.184;11.268;2022-10-31T15:11:08;8.10;;;5.25;;
43877;SDS011;29815;48.184;11.268;2022-10-31T15:13:44;11.38;;;5.88;;
43877;SDS011;29815;48.184;11.268;2022-10-31T15:16:17;15.30;;;6.72;;
43877;SDS011;29815;48.184;11.268;2022-10-31T15:18:53;12.65;;;6.63;;
43877;SDS011;29815;48.184;11.268;2022-10-31T15:21:29;12.10;;;6.00;;
43877;SDS011;29815;48.184;11.268;2022-10-31T15:24:00;11.00;;;5.00;;
43877;SDS011;29815;48.184;11.268;2022-10-31T15:26:31;11.27;;;5.35;;
43877;SDS011;29815;48.184;11.268;2022-10-31T15:29:11;13.30;;;6.30;;
43877;SDS011;29815;48.184;11.268;2022-10-31T15:31:49;10.90;;;7.40;;
43877;SDS011;29815;48.184;11.268;2022-10-31T15:34:21;9.30;;;5.95;;
43877;SDS011;29815;48.184;11.268;2022-10-31T15:36:58;13.43;;;6.82;;
43877;SDS011;29815;48.184;11.268;2022-10-31T15:39:28;11.13;;;6.30;;
43877;SDS011;29815;48.184;11.268;2022-10-31T15:41:58;8.02;;;5.13;;
43877;SDS011;29815;48.184;11.268;2022-10-31T15:44:28;11.73;;;5.45;;
43877;SDS011;29815;48.184;11.268;2022-10-31T15:47:03;12.93;;;7.20;;
43877;SDS011;29815;48.184;11.268;2022-10-31T15:49:46;16.27;;;8.30;;
43877;SDS011;29815;48.184;11.268;2022-10-31T15:52:23;16.60;;;8.90;;
43877;SDS011;29815;48.184;11.268;2022-10-31T15:54:59;11.05;;;7.25;;